createdAt,value
2022-10-21T00:01:20.578Z,14.65
2022-10-21T00:06:42.412Z,15.45
2022-10-21T00:12:04.408Z,15.38
2022-10-21T00:17:26.447Z,15.73
2022-10-21T00:22:48.258Z,15.52
2022-10-21T00:28:10.075Z,16.35
2022-10-21T00:33:31.923Z,15.68
2022-10-21T00:38:53.773Z,15.10
2022-10-21T00:44:15.718Z,14.18
2022-10-21T00:49:45.233Z,15.18
2022-10-21T00:55:07.529Z,15.23
2022-10-21T01:00:29.737Z,15.88
2022-10-21T01:05:52.816Z,16.35
2022-10-21T01:11:18.301Z,14.73
2022-10-21T01:17:20.431Z,16.70
2022-10-21T01:23:14.801Z,16.25
2022-10-21T01:29:06.092Z,16.80
2022-10-21T01:34:56.096Z,16.30
2022-10-21T01:40:25.772Z,16.77
2022-10-21T01:45:56.464Z,17.30
2022-10-21T01:51:20.146Z,17.20
2022-10-21T01:56:44.583Z,16.70
2022-10-21T02:02:09.205Z,17.02
2022-10-21T02:07:31.140Z,16.15
2022-10-21T02:12:57.053Z,16.80
2022-10-21T02:18:22.213Z,16.20
2022-10-21T02:23:57.349Z,17.30
2022-10-21T02:29:24.149Z,16.17
2022-10-21T02:34:51.937Z,15.77
2022-10-21T02:40:21.994Z,17.05
2022-10-21T02:45:46.552Z,16.02
2022-10-21T02:51:08.543Z,13.55
2022-10-21T03:01:57.305Z,15.65
2022-10-21T03:07:19.139Z,16.13
2022-10-21T03:12:40.952Z,14.18
2022-10-21T03:18:02.829Z,13.23
2022-10-21T03:23:24.690Z,13.45
2022-10-21T03:28:46.489Z,14.65
2022-10-21T03:34:08.307Z,14.50
2022-10-21T03:39:30.182Z,15.18
2022-10-21T03:44:51.975Z,14.68
2022-10-21T03:50:17.335Z,14.43
2022-10-21T03:55:41.037Z,14.27
2022-10-21T04:01:02.870Z,14.63
2022-10-21T04:06:24.718Z,14.25
2022-10-21T04:11:46.527Z,15.20
2022-10-21T04:17:08.377Z,15.43
2022-10-21T04:22:30.201Z,15.35
2022-10-21T04:27:52.003Z,13.55
2022-10-21T04:33:13.811Z,15.50
2022-10-21T04:38:35.619Z,15.57
2022-10-21T04:43:57.393Z,16.60
2022-10-21T04:49:19.423Z,14.57
2022-10-21T04:54:41.267Z,14.75
2022-10-21T05:00:05.082Z,15.68
2022-10-21T05:05:26.928Z,14.88
2022-10-21T05:10:48.929Z,14.23
2022-10-21T05:16:10.823Z,14.90
2022-10-21T05:21:32.792Z,15.57
2022-10-21T05:26:54.674Z,14.82
2022-10-21T05:32:16.553Z,13.95
2022-10-21T05:37:38.430Z,15.35
2022-10-21T05:43:00.251Z,12.98
2022-10-21T05:48:22.512Z,13.60
2022-10-21T05:53:44.345Z,13.38
2022-10-21T05:59:09.326Z,11.73
2022-10-21T06:04:36.337Z,13.43
2022-10-21T06:10:00.731Z,13.98
2022-10-21T06:15:22.614Z,14.32
2022-10-21T06:20:44.510Z,14.30
2022-10-21T06:26:12.911Z,14.40
2022-10-21T06:31:34.774Z,14.68
2022-10-21T06:36:56.659Z,14.38
2022-10-21T06:42:18.753Z,13.38
2022-10-21T06:47:41.054Z,15.30
2022-10-21T06:53:03.357Z,12.90
2022-10-21T06:58:25.172Z,13.52
2022-10-21T07:03:47.317Z,12.23
2022-10-21T07:09:10.032Z,12.60
2022-10-21T07:14:32.052Z,11.35
2022-10-21T07:19:53.882Z,10.77
2022-10-21T07:25:15.812Z,11.55
2022-10-21T07:30:44.696Z,9.55
2022-10-21T07:36:08.083Z,8.40
2022-10-21T07:41:33.041Z,8.15
2022-10-21T07:46:55.568Z,8.40
2022-10-21T07:52:18.080Z,8.32
2022-10-21T07:57:40.415Z,9.23
2022-10-21T08:03:02.255Z,9.02
2022-10-21T08:08:24.811Z,9.25
2022-10-21T08:13:48.109Z,8.73
2022-10-21T08:19:18.146Z,7.95
2022-10-21T08:24:42.317Z,8.68
2022-10-21T08:30:04.843Z,8.18
2022-10-21T08:35:28.119Z,7.93
2022-10-21T08:40:52.313Z,8.30
2022-10-21T08:46:24.387Z,8.43
2022-10-21T08:51:54.450Z,7.40
2022-10-21T08:57:16.705Z,8.10
2022-10-21T09:02:52.401Z,7.80
2022-10-21T09:08:20.274Z,8.13
2022-10-21T09:14:00.223Z,7.93
2022-10-21T09:19:47.827Z,15.55
2022-10-21T09:25:45.282Z,7.50
2022-10-21T09:31:16.172Z,7.55
2022-10-21T09:36:42.023Z,6.72
2022-10-21T09:42:10.701Z,6.73
2022-10-21T09:47:35.400Z,7.72
2022-10-21T09:53:15.330Z,7.80
2022-10-21T09:58:37.146Z,7.47
2022-10-21T10:03:59.164Z,6.75
2022-10-21T10:09:28.702Z,8.00
2022-10-21T10:14:50.956Z,7.20
2022-10-21T10:20:19.817Z,7.43
2022-10-21T10:25:47.737Z,7.10
2022-10-21T10:31:09.895Z,7.32
2022-10-21T10:36:36.272Z,7.72
2022-10-21T10:41:58.728Z,6.88
2022-10-21T10:47:26.201Z,7.53
2022-10-21T10:52:48.031Z,7.53
2022-10-21T10:58:13.466Z,7.25
2022-10-21T11:03:44.324Z,7.07
2022-10-21T11:09:07.756Z,6.65
2022-10-21T11:14:29.799Z,6.35
2022-10-21T11:19:59.649Z,6.93
2022-10-21T11:25:42.569Z,7.88
2022-10-21T11:31:13.457Z,7.13
2022-10-21T11:36:40.695Z,6.32
2022-10-21T11:42:17.559Z,6.35
2022-10-21T11:47:55.416Z,6.85
2022-10-21T11:53:41.913Z,6.75
2022-10-21T12:04:51.953Z,6.60
2022-10-21T12:10:29.848Z,6.57
2022-10-21T12:15:58.606Z,6.72
2022-10-21T12:21:25.173Z,7.10
2022-10-21T12:27:23.385Z,12.88
2022-10-21T12:33:16.416Z,6.93
2022-10-21T12:38:57.241Z,7.07
2022-10-21T12:44:21.854Z,7.25
2022-10-21T12:49:44.097Z,6.88
2022-10-21T12:55:16.746Z,7.28
2022-10-21T13:00:38.551Z,6.60
2022-10-21T13:06:03.061Z,10.25
2022-10-21T13:11:39.301Z,7.22
2022-10-21T13:17:28.878Z,6.40
2022-10-21T13:22:53.106Z,7.32
2022-10-21T13:28:14.876Z,7.07
2022-10-21T13:33:38.407Z,7.10
2022-10-21T13:39:04.968Z,7.22
2022-10-21T13:50:21.666Z,7.35
2022-10-21T13:55:53.718Z,10.32
2022-10-21T14:01:18.303Z,7.47
2022-10-21T14:06:46.278Z,7.80
2022-10-21T14:12:21.794Z,6.93
2022-10-21T14:17:50.563Z,7.13
2022-10-21T14:23:19.410Z,7.25
2022-10-21T14:28:44.127Z,7.60
2022-10-21T14:34:06.043Z,7.28
2022-10-21T14:39:28.690Z,7.32
2022-10-21T14:45:02.733Z,7.28
2022-10-21T14:50:25.074Z,7.45
2022-10-21T14:55:48.564Z,7.43
2022-10-21T15:01:21.665Z,6.38
2022-10-21T15:06:59.786Z,6.65
2022-10-21T15:12:21.701Z,7.13
2022-10-21T15:17:43.561Z,6.65
2022-10-21T15:23:05.428Z,6.63
2022-10-21T15:28:32.903Z,6.53
2022-10-21T15:33:56.953Z,6.20
2022-10-21T15:39:18.967Z,6.50
2022-10-21T15:44:41.131Z,6.43
2022-10-21T15:50:13.892Z,6.53
2022-10-21T15:55:35.952Z,7.13
2022-10-21T16:00:58.686Z,7.18
2022-10-21T16:06:22.274Z,6.97
2022-10-21T16:11:58.859Z,7.68
2022-10-21T16:17:21.645Z,7.35
2022-10-21T16:22:43.512Z,7.88
2022-10-21T16:28:05.574Z,8.10
2022-10-21T16:33:27.621Z,7.95
2022-10-21T16:38:50.630Z,8.27
2022-10-21T16:44:12.490Z,8.30
2022-10-21T16:49:34.524Z,8.23
2022-10-21T16:54:56.404Z,8.52
2022-10-21T17:00:18.430Z,8.35
2022-10-21T17:05:40.393Z,9.32
2022-10-21T17:11:02.274Z,9.05
2022-10-21T17:16:24.336Z,9.55
2022-10-21T17:21:46.503Z,9.07
2022-10-21T17:27:08.486Z,10.80
2022-10-21T17:32:30.697Z,10.57
2022-10-21T17:37:52.907Z,10.85
2022-10-21T17:43:14.867Z,10.75
2022-10-21T17:48:36.748Z,10.20
2022-10-21T17:53:58.905Z,10.38
2022-10-21T17:59:20.883Z,10.45
2022-10-21T18:04:42.782Z,10.38
2022-10-21T18:10:05.872Z,10.30
2022-10-21T18:15:27.699Z,9.27
2022-10-21T18:20:49.585Z,10.70
2022-10-21T18:26:14.494Z,11.02
2022-10-21T18:31:39.077Z,12.57
2022-10-21T18:37:00.907Z,13.07
2022-10-21T18:42:22.752Z,14.00
2022-10-21T18:47:44.669Z,14.93
2022-10-21T18:53:06.523Z,15.55
2022-10-21T18:58:30.389Z,15.88
2022-10-21T19:03:53.037Z,17.65
2022-10-21T19:09:21.056Z,17.52
2022-10-21T19:14:42.912Z,18.02
2022-10-21T19:20:05.593Z,18.10
2022-10-21T19:25:27.717Z,20.20
2022-10-21T19:30:49.645Z,19.52
2022-10-21T19:36:11.826Z,21.02
2022-10-21T19:41:33.934Z,21.08
2022-10-21T19:46:55.878Z,18.45
2022-10-21T19:52:17.745Z,17.30
2022-10-21T19:57:39.685Z,18.80
2022-10-21T20:03:01.769Z,18.58
2022-10-21T20:08:23.888Z,19.75
2022-10-21T20:13:47.031Z,19.77
2022-10-21T20:19:10.495Z,21.60
2022-10-21T20:24:32.316Z,20.63
2022-10-21T20:29:54.248Z,19.63
2022-10-21T20:35:16.094Z,21.65
2022-10-21T20:40:38.351Z,21.63
2022-10-21T20:46:05.251Z,23.25
2022-10-21T20:51:29.045Z,23.75
2022-10-21T20:56:51.477Z,23.38
2022-10-21T21:02:13.419Z,22.58
2022-10-21T21:07:35.962Z,22.70
2022-10-21T21:12:57.917Z,19.40
2022-10-21T21:18:19.809Z,20.02
2022-10-21T21:23:43.342Z,17.90
2022-10-21T21:29:06.945Z,17.80
2022-10-21T21:34:28.820Z,18.45
2022-10-21T21:39:50.769Z,18.02
2022-10-21T21:45:12.597Z,20.08
2022-10-21T21:50:34.464Z,17.60
2022-10-21T21:55:59.768Z,19.02
2022-10-21T22:01:28.109Z,18.17
2022-10-21T22:06:49.997Z,17.55
2022-10-21T22:12:14.473Z,18.50
2022-10-21T22:17:37.129Z,17.13
2022-10-21T22:22:59.514Z,18.73
2022-10-21T22:28:21.355Z,17.85
2022-10-21T22:39:05.843Z,18.23
2022-10-21T22:44:27.690Z,17.65
2022-10-21T22:49:50.739Z,19.55
2022-10-21T22:55:12.710Z,18.77
2022-10-21T23:00:34.700Z,19.85
2022-10-21T23:05:56.533Z,21.40
2022-10-21T23:11:18.388Z,18.83
2022-10-21T23:16:40.271Z,18.92
2022-10-21T23:22:02.097Z,19.58
2022-10-21T23:27:23.923Z,19.27
2022-10-21T23:32:46.214Z,19.77
2022-10-21T23:38:08.142Z,19.05
2022-10-21T23:43:30.826Z,18.77
2022-10-21T23:48:52.652Z,19.02
2022-10-21T23:54:14.505Z,18.10
2022-10-21T23:59:36.428Z,19.45
